createdAt,value
2022-08-22T00:00:35.618Z,101708.91
2022-08-22T00:02:45.055Z,101353.75
2022-08-22T00:02:45.442Z,101369.03
2022-08-22T00:02:49.632Z,101552.22
2022-08-22T00:02:55.068Z,101586.47
2022-08-22T00:03:02.741Z,101438.25
2022-08-22T00:03:06.480Z,101570.94
2022-08-22T00:03:18.721Z,101732.47
2022-08-22T00:05:55.095Z,101741.53
2022-08-22T00:08:29.903Z,101761.16
2022-08-22T00:11:06.798Z,101759.94
2022-08-22T00:13:40.630Z,101761.19
2022-08-22T00:16:14.639Z,101764.31
2022-08-22T00:18:47.191Z,101778.34
2022-08-22T00:21:17.806Z,101789.94
2022-08-22T00:23:52.581Z,101806.63
2022-08-22T00:26:28.653Z,101818.84
2022-08-22T00:29:02.761Z,101823.31
2022-08-22T00:31:35.070Z,101842.53
2022-08-22T00:34:06.657Z,101859.25
2022-08-22T00:36:40.262Z,101868.84
2022-08-22T00:39:15.657Z,101875.06
2022-08-22T00:42:55.783Z,101872.59
2022-08-22T00:45:49.490Z,101879.72
2022-08-22T00:49:04.989Z,101885.88
2022-08-22T00:51:59.269Z,101886.75
2022-08-22T00:54:45.560Z,101891.94
2022-08-22T00:57:32.197Z,101899.78
2022-08-22T01:00:11.368Z,101906.84
2022-08-22T01:02:58.324Z,101917.31
2022-08-22T01:05:41.493Z,101930.44
2022-08-22T01:08:20.507Z,101923.75
2022-08-22T01:11:03.408Z,101923.97
2022-08-22T01:13:48.213Z,101925.81
2022-08-22T01:17:04.033Z,101938.16
2022-08-22T01:19:57.754Z,101948.59
2022-08-22T01:22:49.768Z,101945.88
2022-08-22T01:25:55.102Z,101953.63
2022-08-22T01:28:49.294Z,101958.69
2022-08-22T01:31:59.102Z,101952.94
2022-08-22T01:34:58.154Z,101960.66
2022-08-22T01:37:54.576Z,101965.97
2022-08-22T01:40:58.719Z,101970.53
2022-08-22T01:43:58.650Z,101973.91
2022-08-22T01:46:42.199Z,101980.00
2022-08-22T01:49:17.737Z,101981.91
2022-08-22T01:51:52.721Z,101989.78
2022-08-22T01:54:32.147Z,102001.75
2022-08-22T01:57:03.416Z,101992.34
2022-08-22T01:59:34.366Z,101999.47
2022-08-22T02:02:10.740Z,101994.53
2022-08-22T02:04:43.651Z,102000.66
2022-08-22T02:07:19.839Z,102020.00
2022-08-22T02:10:06.349Z,102024.53
2022-08-22T02:12:42.563Z,102022.75
2022-08-22T02:15:20.909Z,102027.16
2022-08-22T02:17:57.492Z,102034.16
2022-08-22T02:20:32.278Z,102041.13
2022-08-22T02:23:07.626Z,102057.63
2022-08-22T02:25:48.505Z,102058.38
2022-08-22T02:28:20.710Z,102065.31
2022-08-22T02:30:56.671Z,102074.06
2022-08-22T02:33:31.668Z,102067.94
2022-08-22T02:36:07.036Z,102059.63
2022-08-22T02:38:40.027Z,102064.00
2022-08-22T02:41:12.504Z,102068.50
2022-08-22T02:43:47.547Z,102072.84
2022-08-22T02:46:24.476Z,102076.44
2022-08-22T02:49:00.177Z,102076.53
2022-08-22T02:51:35.847Z,102085.25
2022-08-22T02:54:16.092Z,102099.94
2022-08-22T02:56:47.802Z,102104.00
2022-08-22T02:59:25.023Z,102109.19
2022-08-22T03:01:53.251Z,102107.56
2022-08-22T03:04:47.110Z,102108.66
2022-08-22T03:07:24.861Z,102110.59
2022-08-22T03:10:02.910Z,102109.69
2022-08-22T03:12:33.570Z,102110.41
2022-08-22T03:15:10.826Z,102122.78
2022-08-22T03:17:47.035Z,102130.75
2022-08-22T03:20:16.183Z,102130.75
2022-08-22T03:22:50.031Z,102129.78
2022-08-22T03:25:27.796Z,102141.97
2022-08-22T03:28:00.516Z,102144.78
2022-08-22T03:30:37.070Z,102144.00
2022-08-22T03:33:17.858Z,102153.47
2022-08-22T03:35:59.763Z,102164.69
2022-08-22T03:38:31.073Z,102169.81
2022-08-22T03:41:33.275Z,102169.81
2022-08-22T03:44:21.202Z,102171.72
2022-08-22T03:47:11.677Z,102172.53
2022-08-22T03:50:00.941Z,102178.66
2022-08-22T03:53:04.717Z,102191.81
2022-08-22T03:55:40.179Z,102187.38
2022-08-22T03:58:28.547Z,102194.84
2022-08-22T04:01:15.557Z,102194.09
2022-08-22T04:04:07.330Z,102198.28
2022-08-22T04:06:59.126Z,102191.25
2022-08-22T04:09:51.816Z,102190.50
2022-08-22T04:12:59.446Z,102194.84
2022-08-22T04:15:49.020Z,102197.53
2022-08-22T04:18:44.674Z,102197.53
2022-08-22T04:21:28.616Z,102201.78
2022-08-22T04:24:12.902Z,102201.03
2022-08-22T04:26:46.202Z,102184.47
2022-08-22T04:29:19.023Z,102192.16
2022-08-22T04:31:49.036Z,102194.00
2022-08-22T04:34:22.601Z,102189.56
2022-08-22T04:36:55.596Z,102186.03
2022-08-22T04:39:27.353Z,102187.38
2022-08-22T04:42:16.332Z,102188.13
2022-08-22T04:44:53.852Z,102189.69
2022-08-22T04:47:29.299Z,102190.56
2022-08-22T04:50:01.021Z,102181.03
2022-08-22T04:52:48.221Z,102178.31
2022-08-22T04:55:33.067Z,102166.06
2022-08-22T04:58:10.991Z,102162.44
2022-08-22T05:00:43.264Z,102157.09
2022-08-22T05:03:16.250Z,102150.84
2022-08-22T05:05:45.061Z,102150.34
2022-08-22T05:08:14.892Z,102139.84
2022-08-22T05:10:46.633Z,102128.44
2022-08-22T05:13:19.171Z,102117.78
2022-08-22T05:15:50.019Z,102109.69
2022-08-22T05:18:22.651Z,102093.72
2022-08-22T05:20:58.416Z,102078.69
2022-08-22T05:23:29.071Z,102079.03
2022-08-22T05:26:00.725Z,102059.69
2022-08-22T05:28:34.870Z,102059.09
2022-08-22T05:31:05.641Z,102037.84
2022-08-22T05:33:39.348Z,102026.41
2022-08-22T05:36:09.381Z,102004.91
2022-08-22T05:38:41.519Z,101982.50
2022-08-22T05:41:12.608Z,101970.91
2022-08-22T05:43:43.161Z,101964.91
2022-08-22T05:46:17.359Z,101962.03
2022-08-22T05:48:52.629Z,101956.47
2022-08-22T05:51:25.266Z,101958.53
2022-08-22T05:53:57.508Z,101945.59
2022-08-22T05:56:30.945Z,101922.50
2022-08-22T05:59:04.181Z,101914.63
2022-08-22T06:01:38.997Z,101897.69
2022-08-22T06:04:13.090Z,101882.13
2022-08-22T06:06:43.886Z,101864.31
2022-08-22T06:09:18.364Z,101843.22
2022-08-22T06:11:51.883Z,101839.25
2022-08-22T06:14:30.100Z,101818.63
2022-08-22T06:17:07.680Z,101823.47
2022-08-22T06:19:40.409Z,101830.81
2022-08-22T06:22:08.147Z,101812.69
2022-08-22T06:24:37.835Z,101809.56
2022-08-22T06:27:09.399Z,101792.94
2022-08-22T06:29:41.025Z,101802.50
2022-08-22T06:32:12.758Z,101802.50
2022-08-22T06:34:44.046Z,101809.88
2022-08-22T06:37:18.058Z,101812.84
2022-08-22T06:39:49.880Z,101787.75
2022-08-22T06:42:19.797Z,101783.47
2022-08-22T06:44:51.137Z,101763.47
2022-08-22T06:47:23.283Z,101744.00
2022-08-22T06:49:55.325Z,101733.56
2022-08-22T06:52:24.753Z,101726.38
2022-08-22T06:55:00.320Z,101715.59
2022-08-22T06:57:33.823Z,101712.38
2022-08-22T07:00:06.497Z,101713.34
2022-08-22T07:02:38.111Z,101706.97
2022-08-22T07:05:08.473Z,101707.22
2022-08-22T07:07:37.203Z,101707.59
2022-08-22T07:10:06.312Z,101689.97
2022-08-22T07:12:39.079Z,101687.84
2022-08-22T07:15:11.009Z,101683.34
2022-08-22T07:17:49.535Z,101678.59
2022-08-22T07:20:25.612Z,101675.91
2022-08-22T07:22:57.235Z,101668.31
2022-08-22T07:25:25.837Z,101672.34
2022-08-22T07:28:08.207Z,101666.50
2022-08-22T07:30:53.813Z,101661.16
2022-08-22T07:33:33.299Z,101668.16
2022-08-22T07:36:17.231Z,101663.03
2022-08-22T07:38:48.170Z,101669.44
2022-08-22T07:41:19.961Z,101666.66
2022-08-22T07:43:50.339Z,101654.63
2022-08-22T07:46:26.867Z,101665.59
2022-08-22T07:49:09.893Z,101673.75
2022-08-22T07:51:43.583Z,101667.00
2022-08-22T07:54:13.612Z,101657.91
2022-08-22T07:56:44.332Z,101654.03
2022-08-22T07:59:16.931Z,101658.66
2022-08-22T08:01:45.235Z,101658.72
2022-08-22T08:04:18.954Z,101657.56
2022-08-22T08:06:49.915Z,101654.63
2022-08-22T08:09:19.663Z,101645.03
2022-08-22T08:11:50.046Z,101648.44
2022-08-22T08:14:19.916Z,101652.22
2022-08-22T08:16:52.950Z,101642.44
2022-08-22T08:19:21.314Z,101641.53
2022-08-22T08:21:53.493Z,101633.06
2022-08-22T08:24:23.994Z,101630.69
2022-08-22T08:27:12.404Z,101636.84
2022-08-22T08:29:41.994Z,101645.66
2022-08-22T08:32:11.635Z,101638.56
2022-08-22T08:34:40.394Z,101637.72
2022-08-22T08:37:15.559Z,101631.66
2022-08-22T08:39:48.406Z,101632.69
2022-08-22T08:43:02.221Z,101638.75
2022-08-22T08:45:42.418Z,101631.00
2022-08-22T08:48:30.791Z,101631.81
2022-08-22T08:51:36.969Z,101635.28
2022-08-22T08:54:18.840Z,101633.38
2022-08-22T08:56:54.425Z,101632.78
2022-08-22T08:59:30.930Z,101619.63
2022-08-22T09:02:27.130Z,101624.84
2022-08-22T09:05:21.401Z,101613.31
2022-08-22T09:08:31.911Z,101610.47
2022-08-22T09:14:19.477Z,101608.00
2022-08-22T09:16:58.711Z,101608.19
2022-08-22T09:19:50.071Z,101613.31
2022-08-22T09:22:50.121Z,101614.28
2022-08-22T09:25:24.701Z,101612.22
2022-08-22T09:28:00.641Z,101615.34
2022-08-22T09:30:54.030Z,101612.84
2022-08-22T09:33:24.783Z,101606.13
2022-08-22T09:35:59.105Z,101612.19
2022-08-22T09:38:47.969Z,101611.94
2022-08-22T09:41:29.425Z,101604.28
2022-08-22T09:44:15.431Z,101607.88
2022-08-22T09:46:54.046Z,101608.97
2022-08-22T09:49:32.731Z,101604.25
2022-08-22T09:52:14.530Z,101606.78
2022-08-22T09:54:59.480Z,101612.28
2022-08-22T09:57:34.596Z,101617.44
2022-08-22T10:00:22.184Z,101620.09
2022-08-22T10:02:59.467Z,101614.00
2022-08-22T10:05:40.421Z,101606.31
2022-08-22T10:08:34.715Z,101609.84
2022-08-22T10:11:22.935Z,101606.88
2022-08-22T10:14:00.500Z,101600.56
2022-08-22T10:17:00.740Z,101598.75
2022-08-22T10:19:32.218Z,101606.41
2022-08-22T10:22:30.227Z,101606.56
2022-08-22T10:25:08.563Z,101604.13
2022-08-22T10:27:50.348Z,101609.97
2022-08-22T10:30:20.252Z,101608.50
2022-08-22T10:32:55.374Z,101606.88
2022-08-22T10:35:33.863Z,101609.84
2022-08-22T10:38:12.425Z,101598.81
2022-08-22T10:40:44.311Z,101609.56
2022-08-22T10:43:21.261Z,101609.09
2022-08-22T10:46:02.638Z,101605.84
2022-08-22T10:48:47.537Z,101607.63
2022-08-22T10:51:28.729Z,101602.63
2022-08-22T10:54:20.580Z,101604.94
2022-08-22T10:56:52.735Z,101602.16
2022-08-22T10:59:32.795Z,101594.91
2022-08-22T11:02:11.868Z,101598.38
2022-08-22T11:05:08.127Z,101599.84
2022-08-22T11:07:48.548Z,101597.50
2022-08-22T11:10:24.814Z,101597.44
2022-08-22T11:13:02.890Z,101596.88
2022-08-22T11:15:53.106Z,101599.56
2022-08-22T11:18:30.446Z,101606.25
2022-08-22T11:21:02.612Z,101603.13
2022-08-22T11:23:40.615Z,101598.47
2022-08-22T11:26:29.885Z,101597.69
2022-08-22T11:29:15.167Z,101596.75
2022-08-22T11:31:51.292Z,101602.03
2022-08-22T11:34:29.876Z,101593.78
2022-08-22T11:37:10.970Z,101591.59
2022-08-22T11:39:45.224Z,101588.34
2022-08-22T11:42:22.150Z,101590.25
2022-08-22T11:44:55.184Z,101591.22
2022-08-22T11:47:28.930Z,101582.84
2022-08-22T11:50:00.131Z,101585.19
2022-08-22T11:52:54.657Z,101586.19
2022-08-22T11:55:32.968Z,101583.78
2022-08-22T11:58:11.264Z,101585.44
2022-08-22T12:00:46.301Z,101592.97
2022-08-22T12:03:58.666Z,101591.66
2022-08-22T12:06:42.286Z,101587.72
2022-08-22T12:09:17.864Z,101594.78
2022-08-22T12:12:00.003Z,101588.91
2022-08-22T12:14:34.558Z,101587.88
2022-08-22T12:17:50.937Z,101592.28
2022-08-22T12:20:16.305Z,101593.97
2022-08-22T12:22:58.502Z,101585.53
2022-08-22T12:25:44.448Z,101585.50
2022-08-22T12:28:20.560Z,101596.22
2022-08-22T12:30:54.869Z,101593.88
2022-08-22T12:33:41.961Z,101598.03
2022-08-22T12:36:26.540Z,101596.34
2022-08-22T12:39:13.970Z,101590.28
2022-08-22T12:42:13.855Z,101579.09
2022-08-22T12:44:52.910Z,101584.72
2022-08-22T12:47:34.442Z,101582.06
2022-08-22T12:50:21.560Z,101589.00
2022-08-22T12:53:06.852Z,101583.88
2022-08-22T12:55:44.063Z,101579.72
2022-08-22T12:58:17.709Z,101577.03
2022-08-22T13:00:48.424Z,101580.22
2022-08-22T13:03:24.739Z,101581.41
2022-08-22T13:05:57.046Z,101590.13
2022-08-22T13:08:30.644Z,101581.28
2022-08-22T13:11:02.339Z,101584.03
2022-08-22T13:13:38.568Z,101581.91
2022-08-22T13:16:09.058Z,101569.22
2022-08-22T13:18:47.886Z,101571.38
2022-08-22T13:21:25.050Z,101578.47
2022-08-22T13:24:02.699Z,101574.03
2022-08-22T13:26:37.464Z,101573.72
2022-08-22T13:29:27.115Z,101577.31
2022-08-22T13:31:59.998Z,101581.84
2022-08-22T13:34:39.610Z,101571.44
2022-08-22T13:37:12.118Z,101579.66
2022-08-22T13:39:43.300Z,101575.91
2022-08-22T13:42:21.206Z,101589.47
2022-08-22T13:45:03.009Z,101583.69
2022-08-22T13:47:35.224Z,101576.84
2022-08-22T13:50:12.437Z,101578.94
2022-08-22T13:52:45.853Z,101572.00
2022-08-22T13:55:29.431Z,101571.69
2022-08-22T13:58:01.974Z,101582.88
2022-08-22T14:01:04.026Z,101577.47
2022-08-22T14:03:39.619Z,101583.31
2022-08-22T14:06:38.055Z,101579.03
2022-08-22T14:09:17.488Z,101584.25
2022-08-22T14:12:08.175Z,101578.88
2022-08-22T14:14:42.398Z,101585.38
2022-08-22T14:17:17.957Z,101587.16
2022-08-22T14:19:58.978Z,101590.22
2022-08-22T14:22:32.088Z,101586.59
2022-08-22T14:25:07.325Z,101591.00
2022-08-22T14:27:39.767Z,101590.84
2022-08-22T14:30:15.149Z,101592.97
2022-08-22T14:32:48.809Z,101595.75
2022-08-22T14:35:26.434Z,101595.88
2022-08-22T14:38:29.919Z,101589.72
2022-08-22T14:40:59.640Z,101576.56
2022-08-22T14:43:40.772Z,101576.28
2022-08-22T14:46:11.578Z,101582.28
2022-08-22T14:48:45.266Z,101578.84
2022-08-22T14:51:21.200Z,101568.69
2022-08-22T14:53:50.008Z,101569.09
2022-08-22T14:56:21.686Z,101585.81
2022-08-22T14:58:54.478Z,101573.00
2022-08-22T15:01:25.314Z,101571.13
2022-08-22T15:03:56.585Z,101578.56
2022-08-22T15:06:35.159Z,101577.09
2022-08-22T15:09:07.714Z,101569.53
2022-08-22T15:11:37.861Z,101574.63
2022-08-22T15:14:13.562Z,101568.78
2022-08-22T15:16:46.410Z,101567.31
2022-08-22T15:19:27.960Z,101555.28
2022-08-22T15:22:11.256Z,101569.97
2022-08-22T15:24:43.360Z,101570.69
2022-08-22T15:27:12.918Z,101568.56
2022-08-22T15:29:50.580Z,101558.66
2022-08-22T15:32:22.358Z,101552.81
2022-08-22T15:34:53.271Z,101560.03
2022-08-22T15:37:33.453Z,101557.06
2022-08-22T15:40:12.502Z,101555.41
2022-08-22T15:42:43.545Z,101546.34
2022-08-22T15:45:20.870Z,101546.97
2022-08-22T15:47:53.068Z,101540.16
2022-08-22T15:50:34.302Z,101542.50
2022-08-22T15:53:27.180Z,101553.56
2022-08-22T15:56:23.618Z,101538.94
2022-08-22T15:59:21.640Z,101536.13
2022-08-22T16:01:52.538Z,101540.28
2022-08-22T16:04:33.983Z,101536.78
2022-08-22T16:07:19.318Z,101544.41
2022-08-22T16:09:50.193Z,101540.69
2022-08-22T16:12:32.089Z,101547.38
2022-08-22T16:15:01.297Z,101539.75
2022-08-22T16:17:53.526Z,101540.81
2022-08-22T16:20:47.655Z,101537.88
2022-08-22T16:23:16.976Z,101536.56
2022-08-22T16:26:08.410Z,101530.91
2022-08-22T16:29:02.814Z,101533.16
2022-08-22T16:31:33.188Z,101525.59
2022-08-22T16:34:22.656Z,101529.41
2022-08-22T16:36:52.242Z,101530.41
2022-08-22T16:39:40.211Z,101526.38
2022-08-22T16:42:27.080Z,101529.31
2022-08-22T16:45:10.925Z,101534.31
2022-08-22T16:47:42.625Z,101537.06
2022-08-22T16:50:29.377Z,101531.59
2022-08-22T16:53:01.219Z,101541.28
2022-08-22T16:56:03.234Z,101544.50
2022-08-22T16:59:09.911Z,101537.56
2022-08-22T17:01:57.778Z,101541.59
2022-08-22T17:04:33.549Z,101542.84
2022-08-22T17:07:13.219Z,101544.53
2022-08-22T17:10:02.945Z,101545.81
2022-08-22T17:12:44.442Z,101550.25
2022-08-22T17:15:28.323Z,101541.91
2022-08-22T17:18:12.870Z,101554.69
2022-08-22T17:20:45.359Z,101546.56
2022-08-22T17:23:20.859Z,101547.28
2022-08-22T17:26:00.712Z,101554.72
2022-08-22T17:28:37.222Z,101545.34
2022-08-22T17:31:12.575Z,101555.91
2022-08-22T17:34:03.026Z,101554.69
2022-08-22T17:36:42.270Z,101552.69
2022-08-22T17:39:19.746Z,101557.31
2022-08-22T17:41:54.547Z,101556.19
2022-08-22T17:44:29.769Z,101553.84
2022-08-22T17:47:02.778Z,101555.69
2022-08-22T17:49:50.432Z,101557.03
2022-08-22T17:52:23.864Z,101556.38
2022-08-22T17:54:55.237Z,101558.50
2022-08-22T17:57:28.426Z,101564.03
2022-08-22T18:00:00.970Z,101566.47
2022-08-22T18:02:33.114Z,101568.84
2022-08-22T18:05:06.146Z,101565.69
2022-08-22T18:07:42.787Z,101569.03
2022-08-22T18:10:14.820Z,101579.31
2022-08-22T18:12:51.754Z,101578.97
2022-08-22T18:15:26.678Z,101573.84
2022-08-22T18:17:57.692Z,101579.31
2022-08-22T18:20:29.192Z,101573.50
2022-08-22T18:23:01.259Z,101578.31
2022-08-22T18:25:40.762Z,101581.28
2022-08-22T18:28:14.192Z,101591.81
2022-08-22T18:30:56.026Z,101585.53
2022-08-22T18:33:32.802Z,101588.75
2022-08-22T18:36:06.228Z,101591.03
2022-08-22T18:38:38.889Z,101589.19
2022-08-22T18:41:11.538Z,101587.97
2022-08-22T18:43:41.499Z,101602.16
2022-08-22T18:46:31.690Z,101603.63
2022-08-22T18:49:17.266Z,101612.47
2022-08-22T18:51:45.316Z,101605.28
2022-08-22T18:54:29.850Z,101607.88
2022-08-22T18:57:02.319Z,101615.09
2022-08-22T18:59:45.969Z,101618.31
2022-08-22T19:02:35.110Z,101616.88
2022-08-22T19:05:24.703Z,101618.34
2022-08-22T19:08:09.044Z,101621.41
2022-08-22T19:10:46.206Z,101613.31
2022-08-22T19:13:35.982Z,101614.31
2022-08-22T19:16:17.427Z,101613.25
2022-08-22T19:18:53.948Z,101622.75
2022-08-22T19:21:45.481Z,101625.56
2022-08-22T19:24:36.260Z,101620.63
2022-08-22T19:27:25.452Z,101627.16
2022-08-22T19:30:01.793Z,101627.53
2022-08-22T19:33:02.997Z,101627.16
2022-08-22T19:35:57.828Z,101628.88
2022-08-22T19:38:57.751Z,101628.59
2022-08-22T19:41:39.744Z,101630.75
2022-08-22T19:44:10.788Z,101639.28
2022-08-22T19:46:41.564Z,101634.16
2022-08-22T19:49:25.410Z,101646.16
2022-08-22T19:52:05.302Z,101649.38
2022-08-22T19:54:34.360Z,101654.59
2022-08-22T19:57:11.565Z,101652.91
2022-08-22T19:59:50.958Z,101655.84
2022-08-22T20:02:26.675Z,101664.34
2022-08-22T20:05:06.345Z,101666.28
2022-08-22T20:07:45.807Z,101666.00
2022-08-22T20:10:26.790Z,101663.63
2022-08-22T20:13:07.555Z,101667.19
2022-08-22T20:16:07.286Z,101669.06
2022-08-22T20:19:17.429Z,101680.25
2022-08-22T20:21:50.297Z,101675.31
2022-08-22T20:24:25.667Z,101688.16
2022-08-22T20:27:14.458Z,101696.50
2022-08-22T20:29:51.893Z,101698.88
2022-08-22T20:32:23.023Z,101696.41
2022-08-22T20:34:56.983Z,101705.25
2022-08-22T20:37:45.295Z,101697.09
2022-08-22T20:40:55.938Z,101710.13
2022-08-22T20:43:25.398Z,101711.13
2022-08-22T20:46:05.626Z,101711.44
2022-08-22T20:48:39.555Z,101705.88
2022-08-22T20:51:09.282Z,101718.34
2022-08-22T20:53:37.642Z,101723.06
2022-08-22T20:56:09.531Z,101727.53
2022-08-22T20:58:40.104Z,101732.75
2022-08-22T21:01:11.357Z,101741.44
2022-08-22T21:03:43.273Z,101738.16
2022-08-22T21:06:13.822Z,101743.31
2022-08-22T21:08:42.621Z,101753.28
2022-08-22T21:11:35.876Z,101755.94
2022-08-22T21:14:19.001Z,101754.41
2022-08-22T21:16:47.065Z,101765.22
2022-08-22T21:19:18.554Z,101759.41
2022-08-22T21:21:46.538Z,101768.94
2022-08-22T21:24:14.495Z,101765.09
2022-08-22T21:26:49.339Z,101770.47
2022-08-22T21:29:23.254Z,101777.19
2022-08-22T21:31:52.792Z,101771.81
2022-08-22T21:34:23.311Z,101772.00
2022-08-22T21:36:52.912Z,101778.34
2022-08-22T21:39:22.810Z,101785.50
2022-08-22T21:41:54.334Z,101790.25
2022-08-22T21:44:28.697Z,101788.38
2022-08-22T21:46:57.688Z,101790.88
2022-08-22T21:49:29.344Z,101795.84
2022-08-22T21:51:57.360Z,101801.31
2022-08-22T21:54:39.722Z,101813.69
2022-08-22T21:57:21.577Z,101813.53
2022-08-22T21:59:59.355Z,101815.16
2022-08-22T22:02:36.983Z,101814.56
2022-08-22T22:05:09.157Z,101817.31
2022-08-22T22:07:38.470Z,101819.16
2022-08-22T22:10:08.395Z,101819.34
2022-08-22T22:12:39.665Z,101827.78
2022-08-22T22:15:08.708Z,101829.94
2022-08-22T22:17:36.629Z,101829.13
2022-08-22T22:20:06.134Z,101840.59
2022-08-22T22:22:34.058Z,101847.81
2022-08-22T22:25:05.788Z,101842.69
2022-08-22T22:27:55.298Z,101852.16
2022-08-22T22:30:26.727Z,101852.25
2022-08-22T22:32:54.644Z,101850.59
2022-08-22T22:35:22.726Z,101856.41
2022-08-22T22:37:50.751Z,101845.72
2022-08-22T22:40:18.752Z,101838.09
2022-08-22T22:42:46.756Z,101837.88
2022-08-22T22:45:16.054Z,101831.50
2022-08-22T22:47:43.981Z,101831.84
2022-08-22T22:50:12.055Z,101833.56
2022-08-22T22:52:40.799Z,101826.63
2022-08-22T22:55:10.416Z,101826.50
2022-08-22T22:57:41.346Z,101828.22
2022-08-22T23:00:13.762Z,101826.19
2022-08-22T23:02:43.475Z,101829.03
2022-08-22T23:05:12.193Z,101826.94
2022-08-22T23:07:40.487Z,101814.19
2022-08-22T23:10:09.436Z,101823.03
2022-08-22T23:12:38.879Z,101817.72
2022-08-22T23:15:08.420Z,101817.53
2022-08-22T23:17:36.716Z,101808.81
2022-08-22T23:20:06.830Z,101812.75
2022-08-22T23:22:34.874Z,101817.19
2022-08-22T23:25:02.857Z,101821.31
2022-08-22T23:27:31.385Z,101826.16
2022-08-22T23:29:59.316Z,101826.63
2022-08-22T23:32:27.246Z,101828.59
2022-08-22T23:34:56.126Z,101829.47
2022-08-22T23:37:25.528Z,101829.47
2022-08-22T23:39:53.580Z,101825.16
2022-08-22T23:42:21.843Z,101822.22
2022-08-22T23:44:49.871Z,101824.03
2022-08-22T23:47:17.827Z,101824.69
2022-08-22T23:49:45.733Z,101822.78
2022-08-22T23:52:14.373Z,101829.94
2022-08-22T23:54:43.894Z,101834.16
2022-08-22T23:57:12.696Z,101827.13
2022-08-22T23:59:46.351Z,101832.47
